createdAt,value
2022-08-29T00:00:18.147Z,13.22
2022-08-29T00:02:50.696Z,13.19
2022-08-29T00:05:24.861Z,13.14
2022-08-29T00:07:52.766Z,13.09
2022-08-29T00:10:21.401Z,13.06
2022-08-29T00:12:48.519Z,13.03
2022-08-29T00:15:16.215Z,13.00
2022-08-29T00:17:43.733Z,12.99
2022-08-29T00:20:15.681Z,12.97
2022-08-29T00:22:42.816Z,12.96
2022-08-29T00:25:11.801Z,12.99
2022-08-29T00:27:38.350Z,12.99
2022-08-29T00:30:07.370Z,12.96
2022-08-29T00:32:36.193Z,12.92
2022-08-29T00:35:07.432Z,12.89
2022-08-29T00:37:34.129Z,12.86
2022-08-29T00:40:00.875Z,12.82
2022-08-29T00:42:28.033Z,12.78
2022-08-29T00:44:54.869Z,12.76
2022-08-29T00:47:26.717Z,12.72
2022-08-29T00:49:57.192Z,12.68
2022-08-29T00:52:34.180Z,12.65
2022-08-29T00:55:04.059Z,12.62
2022-08-29T00:57:32.305Z,12.60
2022-08-29T00:59:59.738Z,12.57
2022-08-29T01:02:26.643Z,12.55
2022-08-29T01:04:54.146Z,12.52
2022-08-29T01:07:20.751Z,12.49
2022-08-29T01:09:47.447Z,12.47
2022-08-29T01:12:19.332Z,12.47
2022-08-29T01:14:53.085Z,12.48
2022-08-29T01:17:47.177Z,12.46
2022-08-29T01:20:23.547Z,12.46
2022-08-29T01:23:20.447Z,12.45
2022-08-29T01:25:49.304Z,12.43
2022-08-29T01:28:21.799Z,12.40
2022-08-29T01:30:58.442Z,12.43
2022-08-29T01:33:25.537Z,12.48
2022-08-29T01:35:52.464Z,12.52
2022-08-29T01:38:27.627Z,12.54
2022-08-29T01:41:02.599Z,12.57
2022-08-29T01:43:29.635Z,12.60
2022-08-29T01:45:58.542Z,12.67
2022-08-29T01:48:25.217Z,12.71
2022-08-29T01:50:51.974Z,12.74
2022-08-29T01:53:19.364Z,12.76
2022-08-29T01:55:45.909Z,12.78
2022-08-29T01:58:12.656Z,12.83
2022-08-29T02:00:39.694Z,12.91
2022-08-29T02:03:07.215Z,12.96
2022-08-29T02:05:33.836Z,12.97
2022-08-29T02:08:00.568Z,12.94
2022-08-29T02:10:27.116Z,12.91
2022-08-29T02:12:53.726Z,12.90
2022-08-29T02:15:21.473Z,12.92
2022-08-29T02:17:48.671Z,12.98
2022-08-29T02:20:15.955Z,13.04
2022-08-29T02:22:42.761Z,13.09
2022-08-29T02:25:29.540Z,13.12
2022-08-29T02:27:57.669Z,13.16
2022-08-29T02:30:25.587Z,13.16
2022-08-29T02:32:52.614Z,13.09
2022-08-29T02:35:19.481Z,13.05
2022-08-29T02:37:46.010Z,13.03
2022-08-29T02:40:12.558Z,13.00
2022-08-29T02:42:39.138Z,12.99
2022-08-29T02:45:06.155Z,12.99
2022-08-29T02:47:35.496Z,13.03
2022-08-29T02:50:05.912Z,13.08
2022-08-29T02:52:36.766Z,13.12
2022-08-29T02:55:04.332Z,13.13
2022-08-29T02:57:30.893Z,13.14
2022-08-29T02:59:57.405Z,13.17
2022-08-29T03:02:23.975Z,13.20
2022-08-29T03:04:50.513Z,13.26
2022-08-29T03:07:17.037Z,13.32
2022-08-29T03:09:43.580Z,13.37
2022-08-29T03:12:10.161Z,13.44
2022-08-29T03:14:36.830Z,13.50
2022-08-29T03:17:03.613Z,13.56
2022-08-29T03:19:30.184Z,13.61
2022-08-29T03:21:56.701Z,13.66
2022-08-29T03:24:23.577Z,13.72
2022-08-29T03:26:56.527Z,13.76
2022-08-29T03:29:23.921Z,13.80
2022-08-29T03:31:50.443Z,13.85
2022-08-29T03:34:17.017Z,13.89
2022-08-29T03:36:43.686Z,13.90
2022-08-29T03:39:10.321Z,13.93
2022-08-29T03:41:36.954Z,13.92
2022-08-29T03:44:03.651Z,13.93
2022-08-29T03:46:30.204Z,13.94
2022-08-29T03:48:56.765Z,13.94
2022-08-29T03:51:24.051Z,13.94
2022-08-29T03:53:56.018Z,13.95
2022-08-29T03:56:23.043Z,13.96
2022-08-29T03:58:53.328Z,13.97
2022-08-29T04:01:22.690Z,13.98
2022-08-29T04:03:49.645Z,13.99
2022-08-29T04:06:16.579Z,13.99
2022-08-29T04:08:43.486Z,14.01
2022-08-29T04:11:12.046Z,14.03
2022-08-29T04:13:38.527Z,14.06
2022-08-29T04:16:17.088Z,14.09
2022-08-29T04:18:43.851Z,14.10
2022-08-29T04:21:10.564Z,14.13
2022-08-29T04:23:38.856Z,14.13
2022-08-29T04:26:31.650Z,14.15
2022-08-29T04:28:58.772Z,14.18
2022-08-29T04:31:25.473Z,14.20
2022-08-29T04:33:52.011Z,14.23
2022-08-29T04:36:18.944Z,14.23
2022-08-29T04:38:45.444Z,14.25
2022-08-29T04:41:15.894Z,14.27
2022-08-29T04:43:42.841Z,14.31
2022-08-29T04:46:09.442Z,14.33
2022-08-29T04:48:50.434Z,14.36
2022-08-29T04:51:16.972Z,14.39
2022-08-29T04:53:43.502Z,14.42
2022-08-29T04:56:12.297Z,14.45
2022-08-29T04:58:41.971Z,14.47
2022-08-29T05:01:19.005Z,14.52
2022-08-29T05:03:45.896Z,14.54
2022-08-29T05:06:14.771Z,14.57
2022-08-29T05:08:43.096Z,14.61
2022-08-29T05:11:13.109Z,14.63
2022-08-29T05:13:39.654Z,14.66
2022-08-29T05:16:12.033Z,14.71
2022-08-29T05:18:39.238Z,14.75
2022-08-29T05:21:06.335Z,14.79
2022-08-29T05:23:33.352Z,14.83
2022-08-29T05:26:03.367Z,14.88
2022-08-29T05:28:31.886Z,14.92
2022-08-29T05:31:00.101Z,14.96
2022-08-29T05:33:27.517Z,14.99
2022-08-29T05:35:54.141Z,15.07
2022-08-29T05:38:20.889Z,15.13
2022-08-29T05:40:47.500Z,15.19
2022-08-29T05:43:14.145Z,15.21
2022-08-29T05:45:41.751Z,15.22
2022-08-29T05:48:09.627Z,15.24
2022-08-29T05:50:43.268Z,15.32
2022-08-29T05:53:16.706Z,15.40
2022-08-29T05:55:44.273Z,15.48
2022-08-29T05:58:12.522Z,15.57
2022-08-29T06:00:43.934Z,15.66
2022-08-29T06:03:11.748Z,15.76
2022-08-29T06:05:39.185Z,15.86
2022-08-29T06:08:06.653Z,15.95
2022-08-29T06:10:34.330Z,16.04
2022-08-29T06:13:00.836Z,16.09
2022-08-29T06:15:29.772Z,16.16
2022-08-29T06:17:56.805Z,16.21
2022-08-29T06:20:23.640Z,16.27
2022-08-29T06:22:50.230Z,16.30
2022-08-29T06:25:37.941Z,16.38
2022-08-29T06:28:03.644Z,16.45
2022-08-29T06:30:33.809Z,16.52
2022-08-29T06:33:01.395Z,16.59
2022-08-29T06:35:28.219Z,16.69
2022-08-29T06:37:54.673Z,16.74
2022-08-29T06:40:21.302Z,16.73
2022-08-29T06:42:47.908Z,16.72
2022-08-29T06:45:14.943Z,16.73
2022-08-29T06:47:41.443Z,16.74
2022-08-29T06:50:08.356Z,16.76
2022-08-29T06:52:35.609Z,16.84
2022-08-29T06:55:02.843Z,16.96
2022-08-29T06:57:29.532Z,17.05
2022-08-29T06:59:56.103Z,17.10
2022-08-29T07:02:22.725Z,17.14
2022-08-29T07:04:49.327Z,17.12
2022-08-29T07:07:15.911Z,17.07
2022-08-29T07:09:42.504Z,17.11
2022-08-29T07:12:09.012Z,17.19
2022-08-29T07:14:35.569Z,17.27
2022-08-29T07:17:02.141Z,17.34
2022-08-29T07:19:28.745Z,17.42
2022-08-29T07:21:58.476Z,17.42
2022-08-29T07:24:25.657Z,17.35
2022-08-29T07:26:52.232Z,17.35
2022-08-29T07:29:21.261Z,17.43
2022-08-29T07:31:48.339Z,17.58
2022-08-29T07:34:15.686Z,17.68
2022-08-29T07:36:42.378Z,17.69
2022-08-29T07:39:16.884Z,17.74
2022-08-29T07:41:44.462Z,17.80
2022-08-29T07:44:12.384Z,17.85
2022-08-29T07:46:38.918Z,17.92
2022-08-29T07:49:05.730Z,18.07
2022-08-29T07:51:32.284Z,18.18
2022-08-29T07:53:59.052Z,18.25
2022-08-29T07:56:30.317Z,18.22
2022-08-29T07:58:59.128Z,18.20
2022-08-29T08:01:26.975Z,18.17
2022-08-29T08:03:54.143Z,18.22
2022-08-29T08:06:23.122Z,18.32
2022-08-29T08:08:51.083Z,18.43
2022-08-29T08:11:18.820Z,18.52
2022-08-29T08:13:45.768Z,18.56
2022-08-29T08:16:16.028Z,18.57
2022-08-29T08:18:43.914Z,18.63
2022-08-29T08:21:12.003Z,18.65
2022-08-29T08:23:40.467Z,18.63
2022-08-29T08:26:08.391Z,18.63
2022-08-29T08:28:35.246Z,18.64
2022-08-29T08:31:06.413Z,18.76
2022-08-29T08:33:35.786Z,18.84
2022-08-29T08:36:06.123Z,18.94
2022-08-29T08:38:32.936Z,19.10
2022-08-29T08:41:28.439Z,19.27
2022-08-29T08:44:04.066Z,19.47
2022-08-29T08:46:42.004Z,19.50
2022-08-29T08:49:42.332Z,19.33
2022-08-29T08:52:21.263Z,19.27
2022-08-29T08:54:59.590Z,19.28
2022-08-29T08:57:32.161Z,19.30
2022-08-29T08:59:59.375Z,19.34
2022-08-29T09:02:35.547Z,19.37
2022-08-29T09:05:21.357Z,19.44
2022-08-29T09:08:12.569Z,19.44
2022-08-29T09:10:59.405Z,19.42
2022-08-29T09:13:51.585Z,19.48
2022-08-29T09:16:34.107Z,19.56
2022-08-29T09:19:09.481Z,19.58
2022-08-29T09:22:03.477Z,19.63
2022-08-29T09:24:40.742Z,19.64
2022-08-29T09:27:09.001Z,19.74
2022-08-29T09:29:37.257Z,19.79
2022-08-29T09:32:12.675Z,19.82
2022-08-29T09:35:07.502Z,19.92
2022-08-29T09:37:35.130Z,19.97
2022-08-29T09:40:11.313Z,20.08
2022-08-29T09:42:43.377Z,20.22
2022-08-29T09:45:23.843Z,20.47
2022-08-29T09:48:07.199Z,20.68
2022-08-29T09:50:33.778Z,20.71
2022-08-29T09:53:02.461Z,20.85
2022-08-29T09:55:45.510Z,20.89
2022-08-29T09:58:19.111Z,20.93
2022-08-29T10:01:04.681Z,20.95
2022-08-29T10:03:41.381Z,20.90
2022-08-29T10:06:21.590Z,20.87
2022-08-29T10:09:05.575Z,20.91
2022-08-29T10:11:44.067Z,20.96
2022-08-29T10:14:16.750Z,21.03
2022-08-29T10:17:19.444Z,21.14
2022-08-29T10:19:46.309Z,21.32
2022-08-29T10:22:35.776Z,21.40
2022-08-29T10:25:11.851Z,21.51
2022-08-29T10:27:54.251Z,21.55
2022-08-29T10:30:40.220Z,21.76
2022-08-29T10:33:14.479Z,21.89
2022-08-29T10:35:54.735Z,22.05
2022-08-29T10:38:44.454Z,22.28
2022-08-29T10:41:29.099Z,22.38
2022-08-29T10:47:21.869Z,22.31
2022-08-29T10:50:27.521Z,22.42
2022-08-29T10:53:23.980Z,22.54
2022-08-29T10:56:06.377Z,22.59
2022-08-29T10:58:51.780Z,22.69
2022-08-29T11:01:36.487Z,22.74
2022-08-29T11:04:17.256Z,22.66
2022-08-29T11:06:55.212Z,22.62
2022-08-29T11:09:27.712Z,22.66
2022-08-29T11:12:07.941Z,22.72
2022-08-29T11:14:40.731Z,22.72
2022-08-29T11:17:11.497Z,22.74
2022-08-29T11:19:45.809Z,22.81
2022-08-29T11:22:39.189Z,22.74
2022-08-29T11:25:12.390Z,22.76
2022-08-29T11:27:53.511Z,22.88
2022-08-29T11:30:27.865Z,22.95
2022-08-29T11:33:14.903Z,22.83
2022-08-29T11:36:19.156Z,22.74
2022-08-29T11:38:59.213Z,22.82
2022-08-29T11:41:52.302Z,22.91
2022-08-29T11:44:27.745Z,22.94
2022-08-29T11:46:56.646Z,22.93
2022-08-29T11:49:48.916Z,23.02
2022-08-29T11:52:22.306Z,23.05
2022-08-29T11:54:54.277Z,22.85
2022-08-29T11:57:20.765Z,22.77
2022-08-29T11:59:49.809Z,22.74
2022-08-29T12:02:28.482Z,22.78
2022-08-29T12:04:57.888Z,22.82
2022-08-29T12:07:44.457Z,22.87
2022-08-29T12:10:29.455Z,22.94
2022-08-29T12:13:04.085Z,23.04
2022-08-29T12:15:31.744Z,23.17
2022-08-29T12:18:13.280Z,23.16
2022-08-29T12:20:50.867Z,23.03
2022-08-29T12:23:24.216Z,22.90
2022-08-29T12:26:15.744Z,22.79
2022-08-29T12:28:56.170Z,22.64
2022-08-29T12:31:26.939Z,22.61
2022-08-29T12:34:19.448Z,22.63
2022-08-29T12:37:17.084Z,22.74
2022-08-29T12:39:58.368Z,22.85
2022-08-29T12:42:46.420Z,22.97
2022-08-29T12:45:18.998Z,23.13
2022-08-29T12:47:50.718Z,23.30
2022-08-29T12:50:25.267Z,23.50
2022-08-29T12:53:02.142Z,23.78
2022-08-29T12:55:36.950Z,24.03
2022-08-29T12:58:03.524Z,24.25
2022-08-29T13:00:32.466Z,24.40
2022-08-29T13:03:20.421Z,24.62
2022-08-29T13:05:48.195Z,24.87
2022-08-29T13:08:27.090Z,25.02
2022-08-29T13:11:04.043Z,24.99
2022-08-29T13:13:30.798Z,24.76
2022-08-29T13:16:01.558Z,24.58
2022-08-29T13:18:29.759Z,24.41
2022-08-29T13:21:28.697Z,24.26
2022-08-29T13:24:01.241Z,24.17
2022-08-29T13:26:32.317Z,24.14
2022-08-29T13:29:27.620Z,24.02
2022-08-29T13:32:24.138Z,23.92
2022-08-29T13:35:13.816Z,23.77
2022-08-29T13:37:43.800Z,23.64
2022-08-29T13:40:29.278Z,23.53
2022-08-29T13:42:56.765Z,23.42
2022-08-29T13:45:25.104Z,23.38
2022-08-29T13:48:01.553Z,23.36
2022-08-29T13:50:29.114Z,23.36
2022-08-29T13:52:57.540Z,23.37
2022-08-29T13:55:24.998Z,23.36
2022-08-29T13:57:53.268Z,23.39
2022-08-29T14:00:24.680Z,23.36
2022-08-29T14:03:03.036Z,23.34
2022-08-29T14:05:30.146Z,23.33
2022-08-29T14:07:56.862Z,23.36
2022-08-29T14:10:23.490Z,23.39
2022-08-29T14:12:50.046Z,23.42
2022-08-29T14:15:21.049Z,23.45
2022-08-29T14:17:48.105Z,23.49
2022-08-29T14:20:17.611Z,23.52
2022-08-29T14:22:45.232Z,23.60
2022-08-29T14:25:13.734Z,23.71
2022-08-29T14:27:40.960Z,23.86
2022-08-29T14:30:10.380Z,24.02
2022-08-29T14:32:37.302Z,24.12
2022-08-29T14:35:05.887Z,24.16
2022-08-29T14:37:32.672Z,24.12
2022-08-29T14:39:59.290Z,24.17
2022-08-29T14:42:26.003Z,24.15
2022-08-29T14:44:52.764Z,24.19
2022-08-29T14:47:20.446Z,24.26
2022-08-29T14:49:46.941Z,24.33
2022-08-29T14:52:15.059Z,24.41
2022-08-29T14:54:43.158Z,24.51
2022-08-29T14:57:10.661Z,24.64
2022-08-29T14:59:39.624Z,24.76
2022-08-29T15:02:08.261Z,24.92
2022-08-29T15:04:37.034Z,25.11
2022-08-29T15:07:11.875Z,25.19
2022-08-29T15:09:39.496Z,25.13
2022-08-29T15:12:06.319Z,25.11
2022-08-29T15:14:34.642Z,25.14
2022-08-29T15:17:02.067Z,25.16
2022-08-29T15:20:15.900Z,25.17
2022-08-29T15:22:15.487Z,25.20
2022-08-29T15:24:42.744Z,25.24
2022-08-29T15:27:09.975Z,25.28
2022-08-29T15:29:37.417Z,25.29
2022-08-29T15:32:05.055Z,25.33
2022-08-29T15:34:31.907Z,25.31
2022-08-29T15:36:59.554Z,25.31
2022-08-29T15:39:27.617Z,25.28
2022-08-29T15:41:59.736Z,25.25
2022-08-29T15:44:28.400Z,25.20
2022-08-29T15:46:56.700Z,25.15
2022-08-29T15:49:25.978Z,25.18
2022-08-29T15:51:53.663Z,25.36
2022-08-29T15:54:20.807Z,25.61
2022-08-29T15:56:47.423Z,25.93
2022-08-29T15:59:15.370Z,26.14
2022-08-29T16:01:45.969Z,25.92
2022-08-29T16:04:14.106Z,25.69
2022-08-29T16:06:40.942Z,25.46
2022-08-29T16:09:15.187Z,25.26
2022-08-29T16:11:44.319Z,25.12
2022-08-29T16:16:58.432Z,24.90
2022-08-29T16:19:25.036Z,24.82
2022-08-29T16:21:51.954Z,24.76
2022-08-29T16:24:21.618Z,24.69
2022-08-29T16:26:48.182Z,24.68
2022-08-29T16:29:14.733Z,24.66
2022-08-29T16:31:53.894Z,24.62
2022-08-29T16:34:20.870Z,24.59
2022-08-29T16:36:47.391Z,24.56
2022-08-29T16:39:13.955Z,24.54
2022-08-29T16:41:40.510Z,24.51
2022-08-29T16:44:08.205Z,24.56
2022-08-29T16:46:34.799Z,24.72
2022-08-29T16:49:01.467Z,24.89
2022-08-29T16:51:28.284Z,25.20
2022-08-29T16:53:58.126Z,25.49
2022-08-29T16:56:24.914Z,25.88
2022-08-29T16:59:01.499Z,25.98
2022-08-29T17:01:34.463Z,25.86
2022-08-29T17:04:02.377Z,25.80
2022-08-29T17:06:30.192Z,25.69
2022-08-29T17:08:57.208Z,25.41
2022-08-29T17:11:24.403Z,25.18
2022-08-29T17:13:51.076Z,24.93
2022-08-29T17:16:18.132Z,24.71
2022-08-29T17:18:45.225Z,24.52
2022-08-29T17:21:12.008Z,24.39
2022-08-29T17:23:39.001Z,24.30
2022-08-29T17:26:08.311Z,24.21
2022-08-29T17:28:36.637Z,24.14
2022-08-29T17:31:03.544Z,24.05
2022-08-29T17:33:30.130Z,23.97
2022-08-29T17:35:56.889Z,23.91
2022-08-29T17:38:24.683Z,23.82
2022-08-29T17:40:57.163Z,23.65
2022-08-29T17:43:25.900Z,23.50
2022-08-29T17:45:52.875Z,23.36
2022-08-29T17:48:20.209Z,23.21
2022-08-29T17:50:48.165Z,23.09
2022-08-29T17:53:14.990Z,22.95
2022-08-29T17:55:41.976Z,22.86
2022-08-29T17:58:08.799Z,22.77
2022-08-29T18:00:36.022Z,22.70
2022-08-29T18:03:02.599Z,22.63
2022-08-29T18:05:29.379Z,22.58
2022-08-29T18:07:56.988Z,22.53
2022-08-29T18:10:24.017Z,22.49
2022-08-29T18:12:50.550Z,22.42
2022-08-29T18:15:17.261Z,22.39
2022-08-29T18:17:45.289Z,22.34
2022-08-29T18:20:15.685Z,22.30
2022-08-29T18:22:43.190Z,22.24
2022-08-29T18:25:11.369Z,22.16
2022-08-29T18:27:43.681Z,22.07
2022-08-29T18:30:13.616Z,21.99
2022-08-29T18:32:40.893Z,21.88
2022-08-29T18:35:08.497Z,21.78
2022-08-29T18:37:35.369Z,21.67
2022-08-29T18:40:02.631Z,21.56
2022-08-29T18:42:40.649Z,21.48
2022-08-29T18:45:09.667Z,21.36
2022-08-29T18:47:37.099Z,21.25
2022-08-29T18:50:25.082Z,21.13
2022-08-29T18:52:52.972Z,21.00
2022-08-29T18:55:20.645Z,20.85
2022-08-29T18:57:48.258Z,20.73
2022-08-29T19:00:16.373Z,20.62
2022-08-29T19:02:43.164Z,20.52
2022-08-29T19:05:10.226Z,20.41
2022-08-29T19:07:36.808Z,20.33
2022-08-29T19:10:05.854Z,20.22
2022-08-29T19:12:32.680Z,20.12
2022-08-29T19:15:00.091Z,20.04
2022-08-29T19:17:26.831Z,19.96
2022-08-29T19:20:12.360Z,19.85
2022-08-29T19:22:39.434Z,19.77
2022-08-29T19:25:08.638Z,19.69
2022-08-29T19:27:43.564Z,19.60
2022-08-29T19:30:13.329Z,19.53
2022-08-29T19:32:40.205Z,19.46
2022-08-29T19:35:07.748Z,19.38
2022-08-29T19:37:34.352Z,19.34
2022-08-29T19:40:01.765Z,19.28
2022-08-29T19:42:28.439Z,19.22
2022-08-29T19:44:55.339Z,19.15
2022-08-29T19:47:24.015Z,19.10
2022-08-29T19:49:51.036Z,19.03
2022-08-29T19:52:18.051Z,19.00
2022-08-29T19:54:44.668Z,18.95
2022-08-29T19:57:14.768Z,18.88
2022-08-29T19:59:42.352Z,18.82
2022-08-29T20:02:09.509Z,18.75
2022-08-29T20:04:36.387Z,18.70
2022-08-29T20:07:03.114Z,18.65
2022-08-29T20:09:30.054Z,18.59
2022-08-29T20:11:57.131Z,18.53
2022-08-29T20:14:24.220Z,18.49
2022-08-29T20:16:51.698Z,18.45
2022-08-29T20:19:18.986Z,18.40
2022-08-29T20:21:46.026Z,18.34
2022-08-29T20:24:15.518Z,18.28
2022-08-29T20:26:42.936Z,18.21
2022-08-29T20:29:11.766Z,18.16
2022-08-29T20:31:39.069Z,18.12
2022-08-29T20:34:05.873Z,18.07
2022-08-29T20:36:51.042Z,18.03
2022-08-29T20:39:20.161Z,17.99
2022-08-29T20:41:56.076Z,17.95
2022-08-29T20:44:24.987Z,17.91
2022-08-29T20:46:52.179Z,17.88
2022-08-29T20:49:23.300Z,17.85
2022-08-29T20:51:51.448Z,17.82
2022-08-29T20:54:22.112Z,17.78
2022-08-29T20:56:49.445Z,17.74
2022-08-29T20:59:16.090Z,17.68
2022-08-29T21:01:43.511Z,17.64
2022-08-29T21:04:30.307Z,17.59
2022-08-29T21:07:01.078Z,17.54
2022-08-29T21:09:28.212Z,17.50
2022-08-29T21:11:55.484Z,17.45
2022-08-29T21:14:22.732Z,17.41
2022-08-29T21:16:51.538Z,17.37
2022-08-29T21:19:18.814Z,17.32
2022-08-29T21:21:45.582Z,17.26
2022-08-29T21:24:12.511Z,17.21
2022-08-29T21:26:40.047Z,17.16
2022-08-29T21:29:07.735Z,17.12
2022-08-29T21:31:36.061Z,17.06
2022-08-29T21:34:06.802Z,17.03
2022-08-29T21:36:36.075Z,16.99
2022-08-29T21:39:05.015Z,16.94
2022-08-29T21:41:32.849Z,16.90
2022-08-29T21:43:59.470Z,16.86
2022-08-29T21:46:29.727Z,16.81
2022-08-29T21:48:59.769Z,16.75
2022-08-29T21:51:28.364Z,16.70
2022-08-29T21:53:56.678Z,16.64
2022-08-29T21:56:25.253Z,16.59
2022-08-29T21:58:56.884Z,16.56
2022-08-29T22:01:27.671Z,16.51
2022-08-29T22:03:54.709Z,16.47
2022-08-29T22:06:22.400Z,16.42
2022-08-29T22:08:49.326Z,16.37
2022-08-29T22:11:24.181Z,16.32
2022-08-29T22:13:51.784Z,16.27
2022-08-29T22:16:28.767Z,16.23
2022-08-29T22:19:07.841Z,16.18
2022-08-29T22:21:38.338Z,16.13
2022-08-29T22:24:06.744Z,16.08
2022-08-29T22:26:34.825Z,16.05
2022-08-29T22:29:02.063Z,16.04
2022-08-29T22:31:28.693Z,15.99
2022-08-29T22:33:55.477Z,15.96
2022-08-29T22:36:22.551Z,15.92
2022-08-29T22:38:56.558Z,15.90
2022-08-29T22:41:24.340Z,15.86
2022-08-29T22:44:11.343Z,15.83
2022-08-29T22:46:43.143Z,15.82
2022-08-29T22:49:10.026Z,15.77
2022-08-29T22:51:36.565Z,15.73
2022-08-29T22:54:21.717Z,15.69
2022-08-29T22:56:48.275Z,15.67
2022-08-29T22:59:14.947Z,15.63
2022-08-29T23:01:44.150Z,15.60
2022-08-29T23:04:11.293Z,15.56
2022-08-29T23:06:38.110Z,15.53
2022-08-29T23:09:05.660Z,15.50
2022-08-29T23:11:32.643Z,15.46
2022-08-29T23:13:59.180Z,15.43
2022-08-29T23:16:25.835Z,15.40
2022-08-29T23:18:52.386Z,15.38
2022-08-29T23:21:19.893Z,15.33
2022-08-29T23:23:46.537Z,15.31
2022-08-29T23:26:13.104Z,15.26
2022-08-29T23:28:40.351Z,15.24
2022-08-29T23:31:07.025Z,15.21
2022-08-29T23:33:35.900Z,15.19
2022-08-29T23:36:03.072Z,15.15
2022-08-29T23:38:29.636Z,15.12
2022-08-29T23:40:57.513Z,15.09
2022-08-29T23:43:24.745Z,15.05
2022-08-29T23:45:54.592Z,15.02
2022-08-29T23:48:25.893Z,14.99
2022-08-29T23:50:53.446Z,14.96
2022-08-29T23:53:21.557Z,14.94
2022-08-29T23:55:48.982Z,14.92
2022-08-29T23:58:16.120Z,14.86
